Terminal Aerodrome Forecast
Issued by NWS Wakefield, VA

Home | Current Version | Previous Version | Text Only | Print | Product List | Glossary On
Versions: 1 2 3 4 5 6 7 8 9 10 11 12 13 14 15 16 17 18 19 20 21
243
FTUS41 KAKQ 262323
TAFSBY
TAF
KSBY 262323Z 2700/2724 15007KT P6SM BKN040 BKN080
     FM270600 18008KT P6SM VCSH SCT015 BKN030
     FM271000 22007KT 3SM SHRA BR OVC015
     FM271400 35006KT 5SM -RA BR OVC010=

USA.gov is the U.S. government's official web portal to all federal, state and local government web resources and services.